createdAt,value
2018-09-01T00:01:45.628Z,9.77
2018-09-01T00:04:14.425Z,9.03
2018-09-01T00:06:43.195Z,9.37
2018-09-01T00:09:11.939Z,9.93
2018-09-01T00:11:40.734Z,11.13
2018-09-01T00:14:09.496Z,10.53
2018-09-01T00:16:38.344Z,9.50
2018-09-01T00:19:07.263Z,10.97
2018-09-01T00:21:36.038Z,10.13
2018-09-01T00:24:11.767Z,11.30
2018-09-01T00:26:42.569Z,10.60
2018-09-01T00:29:11.324Z,9.17
2018-09-01T00:31:40.083Z,10.57
2018-09-01T00:34:08.871Z,11.60
2018-09-01T00:36:37.880Z,10.60
2018-09-01T00:39:08.712Z,10.23
2018-09-01T00:41:37.546Z,9.77
2018-09-01T00:44:06.324Z,10.37
2018-09-01T00:46:35.244Z,10.70
2018-09-01T00:49:04.063Z,9.07
2018-09-01T00:51:32.823Z,9.73
2018-09-01T00:54:01.608Z,9.63
2018-09-01T00:56:30.584Z,10.87
2018-09-01T00:58:59.329Z,11.33
2018-09-01T01:01:28.227Z,12.67
2018-09-01T01:03:56.977Z,12.47
2018-09-01T01:06:25.845Z,11.37
2018-09-01T01:08:54.603Z,13.23
2018-09-01T01:11:23.377Z,15.03
2018-09-01T01:13:52.136Z,15.27
2018-09-01T01:16:20.924Z,19.00
2018-09-01T01:18:49.699Z,14.27
2018-09-01T01:21:18.485Z,15.17
2018-09-01T01:23:47.256Z,15.70
2018-09-01T01:26:16.041Z,15.00
2018-09-01T01:28:44.796Z,14.10
2018-09-01T01:31:13.615Z,15.40
2018-09-01T01:33:42.387Z,14.13
2018-09-01T01:36:11.131Z,15.03
2018-09-01T01:38:39.896Z,13.77
2018-09-01T01:41:08.791Z,14.80
2018-09-01T01:43:37.620Z,15.47
2018-09-01T01:46:06.473Z,13.10
2018-09-01T01:48:35.352Z,12.57
2018-09-01T01:51:04.114Z,12.27
2018-09-01T01:53:32.868Z,10.80
2018-09-01T01:56:01.639Z,11.93
2018-09-01T01:58:30.443Z,13.20
2018-09-01T02:00:59.694Z,12.43
2018-09-01T02:03:28.508Z,12.27
2018-09-01T02:05:57.263Z,11.20
2018-09-01T02:08:26.012Z,10.63
2018-09-01T02:10:54.758Z,11.20
2018-09-01T02:13:23.533Z,10.47
2018-09-01T02:15:52.503Z,11.27
2018-09-01T02:18:21.277Z,10.47
2018-09-01T02:20:50.044Z,11.13
2018-09-01T02:23:18.791Z,9.07
2018-09-01T02:25:47.542Z,9.23
2018-09-01T02:28:16.337Z,9.50
2018-09-01T02:30:45.119Z,10.30
2018-09-01T02:33:13.864Z,9.00
2018-09-01T02:35:42.613Z,8.40
2018-09-01T02:38:11.384Z,9.23
2018-09-01T02:40:40.169Z,9.97
2018-09-01T02:43:08.984Z,7.97
2018-09-01T02:45:37.752Z,8.47
2018-09-01T02:48:06.592Z,8.77
2018-09-01T02:50:35.408Z,7.87
2018-09-01T02:53:04.163Z,8.03
2018-09-01T02:55:32.992Z,7.53
2018-09-01T02:58:01.849Z,7.23
2018-09-01T03:00:37.495Z,7.47
2018-09-01T03:03:06.327Z,7.33
2018-09-01T03:05:35.077Z,6.67
2018-09-01T03:08:03.937Z,8.87
2018-09-01T03:10:32.740Z,8.80
2018-09-01T03:13:01.587Z,8.07
2018-09-01T03:15:30.373Z,9.53
2018-09-01T03:17:59.143Z,9.23
2018-09-01T03:20:27.933Z,8.80
2018-09-01T03:22:56.765Z,9.50
2018-09-01T03:25:25.800Z,8.90
2018-09-01T03:27:54.580Z,9.20
2018-09-01T03:30:23.370Z,8.17
2018-09-01T03:32:52.173Z,9.30
2018-09-01T03:35:20.943Z,10.33
2018-09-01T03:37:49.733Z,9.73
2018-09-01T03:40:18.526Z,9.43
2018-09-01T03:42:47.297Z,8.00
2018-09-01T03:45:16.068Z,9.40
2018-09-01T03:47:44.846Z,10.23
2018-09-01T03:50:13.637Z,10.47
2018-09-01T03:52:42.433Z,9.47
2018-09-01T03:55:11.194Z,9.00
2018-09-01T03:57:40.020Z,10.57
2018-09-01T04:00:08.813Z,9.30
2018-09-01T04:02:37.687Z,10.10
2018-09-01T04:05:07.477Z,10.87
2018-09-01T04:07:36.214Z,8.97
2018-09-01T04:10:05.372Z,9.17
2018-09-01T04:12:34.119Z,8.23
2018-09-01T04:15:02.902Z,8.20
2018-09-01T04:17:31.644Z,10.20
2018-09-01T04:20:00.403Z,10.10
2018-09-01T04:22:29.164Z,8.37
2018-09-01T04:24:57.933Z,10.23
2018-09-01T04:27:26.683Z,9.07
2018-09-01T04:29:55.427Z,9.50
2018-09-01T04:32:24.201Z,9.30
2018-09-01T04:34:52.929Z,8.73
2018-09-01T04:37:21.702Z,9.43
2018-09-01T04:39:50.781Z,9.83
2018-09-01T04:42:19.556Z,9.70
2018-09-01T04:44:48.335Z,10.27
2018-09-01T04:47:17.144Z,10.63
2018-09-01T04:49:45.914Z,11.07
2018-09-01T04:52:14.648Z,9.83
2018-09-01T04:54:43.409Z,9.87
2018-09-01T04:57:12.204Z,9.33
2018-09-01T04:59:40.966Z,9.97
2018-09-01T05:02:09.769Z,9.57
2018-09-01T05:04:38.516Z,9.60
2018-09-01T05:07:07.466Z,9.93
2018-09-01T05:09:36.217Z,9.20
2018-09-01T05:12:05.008Z,10.27
2018-09-01T05:14:33.785Z,10.50
2018-09-01T05:17:02.829Z,8.87
2018-09-01T05:19:31.575Z,8.17
2018-09-01T05:22:00.396Z,10.13
2018-09-01T05:24:29.151Z,10.10
2018-09-01T05:26:57.923Z,11.20
2018-09-01T05:29:26.660Z,9.20
2018-09-01T05:31:55.431Z,10.17
2018-09-01T05:34:24.175Z,9.90
2018-09-01T05:36:52.931Z,8.80
2018-09-01T05:39:21.700Z,9.13
2018-09-01T05:41:50.431Z,8.47
2018-09-01T05:44:19.485Z,9.83
2018-09-01T05:46:48.312Z,8.47
2018-09-01T05:49:17.078Z,9.37
2018-09-01T05:51:45.851Z,9.80
2018-09-01T05:54:14.619Z,9.03
2018-09-01T05:56:43.389Z,8.90
2018-09-01T05:59:12.140Z,8.83
2018-09-01T06:01:41.017Z,8.37
2018-09-01T06:04:09.760Z,9.20
2018-09-01T06:06:38.803Z,8.07
2018-09-01T06:09:09.155Z,9.60
2018-09-01T06:11:37.917Z,9.00
2018-09-01T06:14:07.029Z,8.17
2018-09-01T06:16:35.996Z,7.47
2018-09-01T06:19:04.838Z,8.17
2018-09-01T06:21:33.815Z,8.63
2018-09-01T06:24:02.657Z,9.23
2018-09-01T06:26:31.597Z,8.40
2018-09-01T06:29:06.215Z,8.17
2018-09-01T06:31:35.064Z,8.60
2018-09-01T06:34:03.875Z,8.30
2018-09-01T06:36:32.636Z,8.43
2018-09-01T06:39:01.388Z,8.50
2018-09-01T06:41:30.188Z,7.17
2018-09-01T06:43:58.996Z,6.90
2018-09-01T06:46:27.745Z,8.50
2018-09-01T06:48:56.597Z,6.77
2018-09-01T06:51:25.360Z,8.17
2018-09-01T06:53:54.111Z,8.33
2018-09-01T06:56:22.964Z,7.83
2018-09-01T06:58:51.840Z,9.50
2018-09-01T07:01:20.612Z,8.30
2018-09-01T07:03:49.395Z,7.30
2018-09-01T07:06:18.176Z,8.13
2018-09-01T07:08:46.939Z,7.20
2018-09-01T07:11:15.711Z,6.93
2018-09-01T07:13:44.959Z,6.70
2018-09-01T07:16:13.935Z,7.93
2018-09-01T07:18:42.843Z,7.00
2018-09-01T07:21:12.058Z,8.33
2018-09-01T07:23:41.149Z,8.57
2018-09-01T07:26:10.219Z,7.47
2018-09-01T07:28:39.342Z,7.30
2018-09-01T07:31:08.602Z,7.87
2018-09-01T07:33:37.431Z,7.23
2018-09-01T07:36:06.506Z,6.80
2018-09-01T07:38:35.592Z,5.43
2018-09-01T07:41:04.817Z,6.90
2018-09-01T07:43:33.972Z,6.70
2018-09-01T07:46:03.204Z,6.63
2018-09-01T07:48:32.210Z,6.87
2018-09-01T07:51:01.392Z,6.70
2018-09-01T07:53:30.581Z,6.17
2018-09-01T07:55:59.980Z,6.23
2018-09-01T07:58:28.981Z,5.93
2018-09-01T08:00:57.980Z,6.00
2018-09-01T08:03:27.307Z,5.67
2018-09-01T08:05:57.477Z,5.90
2018-09-01T08:08:26.377Z,6.33
2018-09-01T08:10:55.395Z,6.27
2018-09-01T08:13:24.466Z,5.23
2018-09-01T08:15:53.688Z,6.37
2018-09-01T08:18:22.920Z,4.83
2018-09-01T08:20:51.958Z,6.20
2018-09-01T08:23:21.144Z,5.63
2018-09-01T08:25:50.854Z,5.87
2018-09-01T08:28:20.556Z,5.93
2018-09-01T08:30:49.739Z,6.20
2018-09-01T08:33:18.517Z,5.23
2018-09-01T08:35:47.306Z,6.07
2018-09-01T08:38:16.076Z,5.83
2018-09-01T08:40:44.845Z,7.07
2018-09-01T08:43:13.636Z,5.60
2018-09-01T08:45:42.386Z,5.90
2018-09-01T08:48:11.202Z,6.33
2018-09-01T08:50:40.028Z,5.37
2018-09-01T08:53:09.195Z,5.03
2018-09-01T08:55:38.221Z,5.03
2018-09-01T08:58:07.296Z,4.90
2018-09-01T09:00:36.360Z,5.57
2018-09-01T09:03:05.379Z,5.00
2018-09-01T09:05:34.639Z,5.10
2018-09-01T09:08:03.565Z,5.87
2018-09-01T09:10:32.748Z,5.10
2018-09-01T09:13:01.969Z,5.53
2018-09-01T09:15:31.158Z,5.23
2018-09-01T09:18:00.359Z,5.57
2018-09-01T09:20:29.657Z,5.30
2018-09-01T09:22:58.960Z,4.20
2018-09-01T09:25:28.056Z,4.83
2018-09-01T09:27:57.084Z,4.87
2018-09-01T09:30:26.252Z,4.73
2018-09-01T09:32:55.340Z,4.17
2018-09-01T09:35:24.306Z,4.00
2018-09-01T09:37:53.323Z,4.10
2018-09-01T09:40:22.223Z,3.70
2018-09-01T09:42:51.359Z,3.70
2018-09-01T09:45:20.688Z,3.80
2018-09-01T09:47:49.859Z,3.80
2018-09-01T09:50:19.288Z,3.47
2018-09-01T09:52:48.495Z,3.00
2018-09-01T09:55:17.612Z,4.13
2018-09-01T09:57:47.581Z,3.77
2018-09-01T10:00:20.885Z,3.47
2018-09-01T10:02:50.009Z,2.83
2018-09-01T10:05:18.948Z,3.00
2018-09-01T10:07:47.967Z,2.97
2018-09-01T10:10:17.192Z,3.10
2018-09-01T10:12:46.268Z,3.40
2018-09-01T10:15:15.320Z,2.63
2018-09-01T10:17:44.371Z,3.10
2018-09-01T10:20:13.303Z,2.90
2018-09-01T10:22:41.930Z,2.20
2018-09-01T10:25:10.716Z,3.77
2018-09-01T10:27:39.548Z,2.93
2018-09-01T10:30:08.384Z,2.77
2018-09-01T10:32:37.157Z,3.40
2018-09-01T10:35:05.974Z,2.60
2018-09-01T10:37:34.719Z,2.57
2018-09-01T10:40:03.515Z,2.30
2018-09-01T10:42:32.290Z,2.50
2018-09-01T10:45:01.039Z,3.00
2018-09-01T10:47:29.798Z,2.10
2018-09-01T10:49:58.630Z,2.33
2018-09-01T10:52:27.441Z,1.97
2018-09-01T10:54:58.040Z,2.03
2018-09-01T10:57:26.816Z,1.60
2018-09-01T10:59:55.869Z,2.20
2018-09-01T11:02:24.862Z,1.50
2018-09-01T11:04:53.644Z,1.43
2018-09-01T11:07:22.805Z,1.90
2018-09-01T11:09:51.614Z,1.77
2018-09-01T11:12:20.379Z,2.07
2018-09-01T11:14:49.183Z,2.07
2018-09-01T11:17:18.113Z,1.70
2018-09-01T11:19:46.988Z,1.90
2018-09-01T11:22:16.176Z,2.10
2018-09-01T11:24:44.948Z,2.60
2018-09-01T11:27:13.896Z,1.87
2018-09-01T11:29:42.693Z,2.23
2018-09-01T11:32:11.476Z,2.37
2018-09-01T11:34:40.296Z,1.90
2018-09-01T11:37:09.372Z,2.23
2018-09-01T11:39:38.128Z,2.53
2018-09-01T11:42:07.366Z,2.40
2018-09-01T11:44:36.146Z,2.03
2018-09-01T11:47:04.951Z,1.90
2018-09-01T11:49:33.772Z,2.50
2018-09-01T11:52:02.721Z,2.03
2018-09-01T11:54:31.526Z,2.33
2018-09-01T11:57:00.292Z,2.20
2018-09-01T11:59:29.173Z,2.47
2018-09-01T12:01:57.971Z,2.20
2018-09-01T12:04:26.719Z,2.40
2018-09-01T12:06:55.649Z,1.80
2018-09-01T12:09:24.430Z,1.80
2018-09-01T12:11:53.271Z,2.27
2018-09-01T12:14:22.464Z,2.13
2018-09-01T12:16:51.264Z,2.33
2018-09-01T12:19:20.068Z,2.10
2018-09-01T12:21:48.934Z,1.73
2018-09-01T12:24:17.707Z,2.00
2018-09-01T12:26:47.199Z,1.97
2018-09-01T12:29:16.172Z,2.20
2018-09-01T12:31:45.023Z,1.97
2018-09-01T12:34:13.797Z,1.47
2018-09-01T12:36:42.550Z,1.80
2018-09-01T12:39:11.336Z,2.10
2018-09-01T12:41:40.156Z,2.37
2018-09-01T12:44:08.972Z,1.83
2018-09-01T12:46:37.775Z,2.37
2018-09-01T12:49:06.544Z,2.40
2018-09-01T12:51:35.422Z,2.07
2018-09-01T12:54:04.311Z,1.87
2018-09-01T12:56:33.249Z,1.90
2018-09-01T12:59:02.345Z,2.30
2018-09-01T13:01:31.104Z,1.87
2018-09-01T13:03:59.924Z,1.50
2018-09-01T13:06:28.766Z,2.20
2018-09-01T13:08:57.525Z,1.50
2018-09-01T13:11:26.624Z,1.63
2018-09-01T13:13:55.515Z,1.97
2018-09-01T13:16:24.292Z,1.90
2018-09-01T13:18:53.141Z,1.80
2018-09-01T13:21:21.933Z,2.20
2018-09-01T13:23:50.737Z,1.63
2018-09-01T13:26:19.677Z,1.90
2018-09-01T13:28:48.468Z,1.83
2018-09-01T13:31:17.312Z,2.53
2018-09-01T13:33:46.148Z,2.10
2018-09-01T13:36:14.984Z,2.33
2018-09-01T13:38:43.846Z,1.37
2018-09-01T13:41:12.785Z,1.70
2018-09-01T13:43:41.616Z,1.63
2018-09-01T13:46:10.600Z,1.77
2018-09-01T13:48:39.320Z,1.93
2018-09-01T13:51:08.538Z,1.70
2018-09-01T13:53:37.374Z,1.53
2018-09-01T13:56:06.554Z,1.53
2018-09-01T13:58:35.364Z,1.70
2018-09-01T14:01:04.231Z,1.97
2018-09-01T14:03:32.972Z,2.00
2018-09-01T14:06:02.007Z,1.60
2018-09-01T14:08:30.760Z,2.07
2018-09-01T14:10:59.988Z,1.70
2018-09-01T14:13:28.779Z,1.70
2018-09-01T14:15:57.559Z,1.40
2018-09-01T14:18:26.335Z,1.70
2018-09-01T14:20:55.165Z,1.70
2018-09-01T14:23:23.961Z,1.73
2018-09-01T14:25:52.712Z,1.57
2018-09-01T14:28:21.750Z,1.37
2018-09-01T14:30:50.578Z,1.70
2018-09-01T14:33:19.375Z,2.23
2018-09-01T14:35:48.217Z,1.90
2018-09-01T14:38:17.062Z,1.70
2018-09-01T14:40:45.860Z,1.40
2018-09-01T14:43:14.628Z,1.43
2018-09-01T14:45:43.471Z,1.73
2018-09-01T14:48:12.281Z,1.90
2018-09-01T14:50:41.042Z,1.50
2018-09-01T14:53:09.813Z,1.43
2018-09-01T14:55:38.628Z,2.00
2018-09-01T14:58:07.401Z,1.97
2018-09-01T15:00:36.164Z,1.50
2018-09-01T15:03:04.960Z,1.30
2018-09-01T15:05:33.726Z,1.80
2018-09-01T15:08:02.645Z,1.53
2018-09-01T15:10:31.476Z,2.00
2018-09-01T15:13:00.244Z,1.40
2018-09-01T15:15:29.036Z,2.03
2018-09-01T15:17:57.828Z,1.90
2018-09-01T15:20:26.705Z,1.43
2018-09-01T15:22:55.489Z,1.53
2018-09-01T15:25:24.260Z,1.80
2018-09-01T15:27:53.061Z,1.77
2018-09-01T15:30:21.856Z,1.50
2018-09-01T15:32:50.716Z,1.70
2018-09-01T15:35:19.554Z,1.97
2018-09-01T15:37:48.305Z,1.63
2018-09-01T15:40:17.133Z,1.53
2018-09-01T15:42:45.948Z,1.93
2018-09-01T15:45:14.704Z,1.70
2018-09-01T15:47:43.575Z,1.57
2018-09-01T15:50:12.563Z,1.90
2018-09-01T15:52:41.401Z,1.90
2018-09-01T15:55:10.218Z,1.20
2018-09-01T15:57:38.999Z,1.40
2018-09-01T16:00:08.060Z,1.80
2018-09-01T16:02:36.835Z,1.80
2018-09-01T16:05:05.945Z,1.57
2018-09-01T16:07:34.708Z,1.67
2018-09-01T16:10:03.635Z,1.47
2018-09-01T16:12:32.446Z,1.03
2018-09-01T16:15:01.250Z,1.83
2018-09-01T16:17:30.024Z,1.70
2018-09-01T16:19:59.109Z,1.73
2018-09-01T16:22:27.892Z,1.57
2018-09-01T16:24:56.643Z,2.00
2018-09-01T16:27:25.430Z,2.70
2018-09-01T16:29:54.176Z,1.50
2018-09-01T16:32:22.956Z,1.70
2018-09-01T16:34:51.738Z,1.63
2018-09-01T16:37:20.493Z,1.93
2018-09-01T16:39:49.275Z,1.60
2018-09-01T16:42:18.037Z,1.60
2018-09-01T16:44:46.813Z,1.30
2018-09-01T16:47:15.611Z,1.20
2018-09-01T16:49:44.366Z,1.40
2018-09-01T16:52:13.157Z,1.47
2018-09-01T16:54:41.974Z,1.80
2018-09-01T16:57:10.729Z,2.27
2018-09-01T16:59:39.525Z,2.33
2018-09-01T17:02:08.301Z,1.60
2018-09-01T17:04:37.081Z,1.40
2018-09-01T17:07:06.156Z,1.70
2018-09-01T17:09:35.487Z,1.93
2018-09-01T17:12:04.300Z,1.90
2018-09-01T17:14:33.092Z,1.47
2018-09-01T17:17:01.961Z,1.67
2018-09-01T17:19:31.024Z,1.57
2018-09-01T17:21:59.817Z,1.93
2018-09-01T17:24:28.596Z,1.50
2018-09-01T17:26:57.383Z,1.70
2018-09-01T17:29:26.136Z,1.50
2018-09-01T17:31:54.894Z,1.53
2018-09-01T17:34:23.664Z,1.50
2018-09-01T17:36:52.552Z,1.43
2018-09-01T17:39:21.372Z,1.70
2018-09-01T17:41:50.148Z,2.07
2018-09-01T17:44:18.912Z,2.60
2018-09-01T17:46:47.677Z,2.67
2018-09-01T17:49:16.460Z,1.60
2018-09-01T17:51:45.188Z,2.07
2018-09-01T17:54:13.947Z,1.93
2018-09-01T17:56:42.705Z,2.17
2018-09-01T17:59:11.468Z,2.30
2018-09-01T18:01:40.341Z,1.73
2018-09-01T18:04:09.131Z,1.90
2018-09-01T18:06:37.920Z,2.17
2018-09-01T18:09:07.624Z,2.03
2018-09-01T18:11:36.366Z,1.40
2018-09-01T18:14:05.260Z,2.37
2018-09-01T18:16:34.106Z,2.17
2018-09-01T18:19:02.920Z,1.50
2018-09-01T18:21:31.697Z,1.70
2018-09-01T18:24:00.470Z,2.10
2018-09-01T18:26:29.256Z,2.47
2018-09-01T18:28:58.012Z,2.03
2018-09-01T18:31:26.801Z,2.07
2018-09-01T18:33:55.572Z,2.60
2018-09-01T18:36:24.374Z,2.40
2018-09-01T18:38:53.404Z,2.57
2018-09-01T18:41:22.210Z,2.00
2018-09-01T18:43:50.976Z,2.27
2018-09-01T18:46:19.773Z,2.37
2018-09-01T18:48:48.519Z,2.00
2018-09-01T18:51:17.300Z,2.13
2018-09-01T18:53:46.096Z,1.70
2018-09-01T18:56:15.104Z,2.17
2018-09-01T18:58:44.453Z,1.87
2018-09-01T19:01:13.610Z,2.03
2018-09-01T19:03:43.052Z,1.87
2018-09-01T19:06:12.413Z,2.03
2018-09-01T19:08:41.586Z,1.70
2018-09-01T19:11:10.826Z,2.40
2018-09-01T19:13:40.195Z,2.63
2018-09-01T19:16:09.277Z,2.87
2018-09-01T19:18:38.528Z,2.93
2018-09-01T19:21:07.840Z,2.37
2018-09-01T19:23:36.646Z,2.43
2018-09-01T19:26:05.608Z,2.50
2018-09-01T19:28:34.365Z,2.47
2018-09-01T19:31:03.160Z,2.07
2018-09-01T19:33:31.911Z,2.33
2018-09-01T19:36:00.686Z,1.63
2018-09-01T19:38:29.526Z,2.77
2018-09-01T19:40:58.309Z,1.90
2018-09-01T19:43:27.136Z,2.23
2018-09-01T19:45:55.888Z,2.50
2018-09-01T19:48:24.640Z,2.30
2018-09-01T19:50:53.412Z,2.10
2018-09-01T19:53:22.224Z,2.03
2018-09-01T19:55:50.951Z,2.20
2018-09-01T19:58:19.779Z,2.40
2018-09-01T20:00:48.535Z,1.83
2018-09-01T20:03:17.263Z,2.50
2018-09-01T20:05:46.248Z,2.10
2018-09-01T20:08:15.104Z,2.13
2018-09-01T20:10:43.859Z,2.37
2018-09-01T20:13:12.652Z,3.03
2018-09-01T20:15:41.419Z,2.87
2018-09-01T20:18:10.174Z,2.83
2018-09-01T20:20:38.944Z,3.03
2018-09-01T20:23:07.763Z,2.10
2018-09-01T20:25:36.510Z,2.50
2018-09-01T20:28:05.264Z,3.27
2018-09-01T20:30:34.012Z,3.20
2018-09-01T20:33:02.744Z,2.80
2018-09-01T20:35:36.731Z,2.93
2018-09-01T20:38:05.603Z,2.77
2018-09-01T20:40:34.428Z,2.60
2018-09-01T20:43:03.195Z,2.37
2018-09-01T20:45:32.006Z,2.67
2018-09-01T20:48:00.783Z,2.87
2018-09-01T20:50:29.541Z,2.70
2018-09-01T20:52:58.312Z,3.10
2018-09-01T20:55:27.082Z,2.73
2018-09-01T20:57:55.823Z,2.73
2018-09-01T21:00:24.644Z,2.53
2018-09-01T21:02:53.384Z,2.07
2018-09-01T21:05:22.144Z,3.20
2018-09-01T21:07:51.004Z,2.00
2018-09-01T21:10:19.922Z,2.50
2018-09-01T21:12:48.628Z,2.70
2018-09-01T21:15:17.380Z,2.23
2018-09-01T21:17:46.143Z,2.80
2018-09-01T21:20:14.906Z,2.47
2018-09-01T21:22:43.676Z,2.20
2018-09-01T21:25:12.429Z,2.50
2018-09-01T21:27:45.107Z,3.10
2018-09-01T21:30:13.875Z,2.95
2018-09-01T21:32:42.665Z,2.83
2018-09-01T21:35:11.512Z,3.33
2018-09-01T21:37:40.280Z,3.00
2018-09-01T21:40:09.063Z,3.00
2018-09-01T21:42:37.809Z,2.97
2018-09-01T21:45:06.620Z,2.30
2018-09-01T21:47:35.451Z,2.57
2018-09-01T21:50:04.232Z,2.90
2018-09-01T21:52:33.004Z,3.03
2018-09-01T21:55:01.772Z,2.67
2018-09-01T21:57:30.600Z,2.73
2018-09-01T21:59:59.448Z,2.97
2018-09-01T22:02:28.218Z,2.90
2018-09-01T22:05:02.208Z,2.80
2018-09-01T22:07:30.979Z,2.67
2018-09-01T22:09:59.768Z,2.40
2018-09-01T22:12:28.525Z,2.23
2018-09-01T22:14:57.417Z,2.60
2018-09-01T22:17:26.189Z,2.87
2018-09-01T22:19:54.986Z,2.70
2018-09-01T22:22:23.743Z,2.70
2018-09-01T22:24:52.503Z,3.13
2018-09-01T22:27:21.300Z,2.30
2018-09-01T22:29:50.090Z,2.27
2018-09-01T22:32:18.888Z,2.83
2018-09-01T22:34:47.646Z,3.27
2018-09-01T22:37:16.413Z,3.10
2018-09-01T22:39:45.212Z,2.63
2018-09-01T22:42:13.976Z,2.90
2018-09-01T22:44:42.715Z,2.83
2018-09-01T22:47:15.292Z,3.50
2018-09-01T22:49:44.060Z,2.77
2018-09-01T22:52:12.844Z,3.20
2018-09-01T22:54:41.717Z,2.67
2018-09-01T22:57:10.476Z,3.03
2018-09-01T22:59:39.268Z,3.10
2018-09-01T23:02:08.070Z,3.63
2018-09-01T23:04:36.908Z,2.67
2018-09-01T23:07:05.741Z,2.60
2018-09-01T23:09:34.513Z,2.57
2018-09-01T23:12:03.301Z,2.80
2018-09-01T23:14:32.069Z,2.50
2018-09-01T23:17:00.856Z,2.30
2018-09-01T23:19:29.780Z,2.90
2018-09-01T23:21:58.528Z,3.13
2018-09-01T23:24:27.281Z,2.33
2018-09-01T23:26:56.063Z,3.40
2018-09-01T23:29:24.805Z,2.70
2018-09-01T23:31:53.545Z,2.33
2018-09-01T23:34:22.297Z,2.60
2018-09-01T23:36:51.114Z,3.20
2018-09-01T23:39:19.888Z,2.60
2018-09-01T23:41:48.663Z,3.23
2018-09-01T23:44:17.442Z,2.60
2018-09-01T23:46:46.221Z,3.07
2018-09-01T23:49:14.987Z,3.03
2018-09-01T23:51:43.740Z,2.63
2018-09-01T23:54:12.480Z,3.20
2018-09-01T23:56:41.284Z,3.83
2018-09-01T23:59:10.044Z,2.57
